sensor_id;sensor_type;location;lat;lon;timestamp;P1;durP1;ratioP1;P2;durP2;ratioP2
5022;SDS011;2530;47.990;7.866;2023-03-01T00:01:19;16.55;;;14.65;;
5022;SDS011;2530;47.990;7.866;2023-03-01T00:03:46;16.80;;;14.60;;
5022;SDS011;2530;47.990;7.866;2023-03-01T00:06:12;17.55;;;14.65;;
5022;SDS011;2530;47.990;7.866;2023-03-01T00:08:38;17.13;;;14.90;;
5022;SDS011;2530;47.990;7.866;2023-03-01T00:13:29;18.08;;;13.63;;
5022;SDS011;2530;47.990;7.866;2023-03-01T00:15:55;16.65;;;14.60;;
5022;SDS011;2530;47.990;7.866;2023-03-01T00:18:21;16.55;;;14.68;;
5022;SDS011;2530;47.990;7.866;2023-03-01T00:20:51;16.08;;;13.75;;
5022;SDS011;2530;47.990;7.866;2023-03-01T00:23:21;15.50;;;13.80;;
5022;SDS011;2530;47.990;7.866;2023-03-01T00:25:47;19.48;;;15.00;;
5022;SDS011;2530;47.990;7.866;2023-03-01T00:28:13;15.63;;;13.90;;
5022;SDS011;2530;47.990;7.866;2023-03-01T00:30:39;17.48;;;14.93;;
5022;SDS011;2530;47.990;7.866;2023-03-01T00:33:05;19.33;;;15.60;;
5022;SDS011;2530;47.990;7.866;2023-03-01T00:35:32;17.43;;;14.67;;
5022;SDS011;2530;47.990;7.866;2023-03-01T00:37:58;17.70;;;14.83;;
5022;SDS011;2530;47.990;7.866;2023-03-01T00:40:24;17.17;;;14.30;;
5022;SDS011;2530;47.990;7.866;2023-03-01T00:42:50;17.27;;;14.50;;
5022;SDS011;2530;47.990;7.866;2023-03-01T00:45:16;16.00;;;13.33;;
5022;SDS011;2530;47.990;7.866;2023-03-01T00:47:42;20.90;;;13.88;;
5022;SDS011;2530;47.990;7.866;2023-03-01T00:50:08;16.23;;;14.32;;
5022;SDS011;2530;47.990;7.866;2023-03-01T00:52:35;15.43;;;13.30;;
5022;SDS011;2530;47.990;7.866;2023-03-01T00:55:01;18.50;;;13.10;;
5022;SDS011;2530;47.990;7.866;2023-03-01T00:57:27;16.15;;;13.77;;
5022;SDS011;2530;47.990;7.866;2023-03-01T00:59:52;16.45;;;13.77;;
5022;SDS011;2530;47.990;7.866;2023-03-01T01:02:18;18.75;;;13.80;;
5022;SDS011;2530;47.990;7.866;2023-03-01T01:04:44;16.00;;;13.35;;
5022;SDS011;2530;47.990;7.866;2023-03-01T01:07:10;15.57;;;13.20;;
5022;SDS011;2530;47.990;7.866;2023-03-01T01:09:36;18.98;;;14.45;;
5022;SDS011;2530;47.990;7.866;2023-03-01T01:12:02;17.55;;;14.00;;
5022;SDS011;2530;47.990;7.866;2023-03-01T01:14:27;16.65;;;14.23;;
5022;SDS011;2530;47.990;7.866;2023-03-01T01:16:53;15.77;;;13.00;;
5022;SDS011;2530;47.990;7.866;2023-03-01T01:19:19;17.15;;;13.52;;
5022;SDS011;2530;47.990;7.866;2023-03-01T01:21:45;15.70;;;12.73;;
5022;SDS011;2530;47.990;7.866;2023-03-01T01:24:11;17.15;;;14.27;;
5022;SDS011;2530;47.990;7.866;2023-03-01T01:26:36;15.18;;;12.82;;
5022;SDS011;2530;47.990;7.866;2023-03-01T01:29:03;16.40;;;13.00;;
5022;SDS011;2530;47.990;7.866;2023-03-01T01:31:30;16.70;;;13.43;;
5022;SDS011;2530;47.990;7.866;2023-03-01T01:33:56;15.90;;;12.45;;
5022;SDS011;2530;47.990;7.866;2023-03-01T01:36:23;17.13;;;12.80;;
5022;SDS011;2530;47.990;7.866;2023-03-01T01:38:49;14.80;;;13.07;;
5022;SDS011;2530;47.990;7.866;2023-03-01T01:41:14;14.07;;;12.32;;
5022;SDS011;2530;47.990;7.866;2023-03-01T01:43:42;15.48;;;13.52;;
5022;SDS011;2530;47.990;7.866;2023-03-01T01:46:15;16.48;;;12.27;;
5022;SDS011;2530;47.990;7.866;2023-03-01T01:48:58;16.95;;;13.38;;
5022;SDS011;2530;47.990;7.866;2023-03-01T01:51:31;15.02;;;12.90;;
5022;SDS011;2530;47.990;7.866;2023-03-01T01:54:03;16.45;;;13.65;;
5022;SDS011;2530;47.990;7.866;2023-03-01T01:56:34;17.25;;;14.32;;
5022;SDS011;2530;47.990;7.866;2023-03-01T01:59:02;16.55;;;13.90;;
5022;SDS011;2530;47.990;7.866;2023-03-01T02:01:28;15.85;;;13.88;;
5022;SDS011;2530;47.990;7.866;2023-03-01T02:03:54;16.73;;;13.60;;
5022;SDS011;2530;47.990;7.866;2023-03-01T02:08:45;15.87;;;14.00;;
5022;SDS011;2530;47.990;7.866;2023-03-01T02:11:13;13.93;;;12.20;;
5022;SDS011;2530;47.990;7.866;2023-03-01T02:13:39;15.00;;;13.13;;
5022;SDS011;2530;47.990;7.866;2023-03-01T02:16:10;17.38;;;13.57;;
5022;SDS011;2530;47.990;7.866;2023-03-01T02:18:38;16.42;;;14.18;;
5022;SDS011;2530;47.990;7.866;2023-03-01T02:21:12;15.35;;;12.98;;
5022;SDS011;2530;47.990;7.866;2023-03-01T02:24:19;16.50;;;13.40;;
5022;SDS011;2530;47.990;7.866;2023-03-01T02:26:54;15.30;;;13.00;;
5022;SDS011;2530;47.990;7.866;2023-03-01T02:29:22;15.30;;;13.13;;
5022;SDS011;2530;47.990;7.866;2023-03-01T02:31:49;18.60;;;14.02;;
5022;SDS011;2530;47.990;7.866;2023-03-01T02:34:18;14.73;;;12.25;;
5022;SDS011;2530;47.990;7.866;2023-03-01T02:36:47;16.15;;;13.32;;
5022;SDS011;2530;47.990;7.866;2023-03-01T02:39:36;13.95;;;12.30;;
5022;SDS011;2530;47.990;7.866;2023-03-01T02:42:07;13.77;;;12.27;;
5022;SDS011;2530;47.990;7.866;2023-03-01T02:44:37;14.65;;;12.07;;
5022;SDS011;2530;47.990;7.866;2023-03-01T02:47:03;15.90;;;13.30;;
5022;SDS011;2530;47.990;7.866;2023-03-01T02:49:34;14.67;;;12.70;;
5022;SDS011;2530;47.990;7.866;2023-03-01T02:52:05;15.10;;;12.25;;
5022;SDS011;2530;47.990;7.866;2023-03-01T02:54:36;15.93;;;12.80;;
5022;SDS011;2530;47.990;7.866;2023-03-01T02:57:25;16.45;;;12.48;;
5022;SDS011;2530;47.990;7.866;2023-03-01T02:59:54;15.27;;;12.60;;
5022;SDS011;2530;47.990;7.866;2023-03-01T03:02:22;14.90;;;12.38;;
5022;SDS011;2530;47.990;7.866;2023-03-01T03:05:09;15.13;;;12.13;;
5022;SDS011;2530;47.990;7.866;2023-03-01T03:08:01;16.60;;;12.80;;
5022;SDS011;2530;47.990;7.866;2023-03-01T03:10:30;14.93;;;12.00;;
5022;SDS011;2530;47.990;7.866;2023-03-01T03:12:58;15.57;;;13.07;;
5022;SDS011;2530;47.990;7.866;2023-03-01T03:15:26;15.75;;;13.07;;
5022;SDS011;2530;47.990;7.866;2023-03-01T03:17:53;15.13;;;12.23;;
5022;SDS011;2530;47.990;7.866;2023-03-01T03:20:20;16.42;;;12.60;;
5022;SDS011;2530;47.990;7.866;2023-03-01T03:22:48;19.23;;;14.77;;
5022;SDS011;2530;47.990;7.866;2023-03-01T03:25:15;15.35;;;13.18;;
5022;SDS011;2530;47.990;7.866;2023-03-01T03:27:42;16.23;;;13.13;;
5022;SDS011;2530;47.990;7.866;2023-03-01T03:30:10;15.70;;;12.70;;
5022;SDS011;2530;47.990;7.866;2023-03-01T03:32:37;17.38;;;12.85;;
5022;SDS011;2530;47.990;7.866;2023-03-01T03:35:04;17.00;;;13.18;;
5022;SDS011;2530;47.990;7.866;2023-03-01T03:37:35;16.23;;;13.55;;
5022;SDS011;2530;47.990;7.866;2023-03-01T03:40:20;15.05;;;12.45;;
5022;SDS011;2530;47.990;7.866;2023-03-01T03:42:46;16.43;;;12.93;;
5022;SDS011;2530;47.990;7.866;2023-03-01T03:45:13;13.55;;;11.82;;
5022;SDS011;2530;47.990;7.866;2023-03-01T03:47:38;14.55;;;12.25;;
5022;SDS011;2530;47.990;7.866;2023-03-01T03:50:04;15.75;;;13.15;;
5022;SDS011;2530;47.990;7.866;2023-03-01T03:52:30;15.85;;;12.23;;
5022;SDS011;2530;47.990;7.866;2023-03-01T03:54:55;16.63;;;13.10;;
5022;SDS011;2530;47.990;7.866;2023-03-01T03:57:21;15.13;;;12.10;;
5022;SDS011;2530;47.990;7.866;2023-03-01T03:59:46;15.20;;;12.40;;
5022;SDS011;2530;47.990;7.866;2023-03-01T04:02:12;14.33;;;12.40;;
5022;SDS011;2530;47.990;7.866;2023-03-01T04:04:37;17.43;;;13.40;;
5022;SDS011;2530;47.990;7.866;2023-03-01T04:07:03;16.77;;;13.60;;
5022;SDS011;2530;47.990;7.866;2023-03-01T04:09:28;14.13;;;11.97;;
5022;SDS011;2530;47.990;7.866;2023-03-01T04:11:55;16.08;;;12.48;;
5022;SDS011;2530;47.990;7.866;2023-03-01T04:14:20;15.03;;;12.73;;
5022;SDS011;2530;47.990;7.866;2023-03-01T04:16:46;16.53;;;13.00;;
5022;SDS011;2530;47.990;7.866;2023-03-01T04:19:12;16.80;;;12.40;;
5022;SDS011;2530;47.990;7.866;2023-03-01T04:21:37;17.10;;;13.40;;
5022;SDS011;2530;47.990;7.866;2023-03-01T04:24:03;16.00;;;12.70;;
5022;SDS011;2530;47.990;7.866;2023-03-01T04:26:29;15.82;;;12.35;;
5022;SDS011;2530;47.990;7.866;2023-03-01T04:28:54;15.90;;;12.77;;
5022;SDS011;2530;47.990;7.866;2023-03-01T04:31:20;15.93;;;13.00;;
5022;SDS011;2530;47.990;7.866;2023-03-01T04:36:19;15.87;;;12.93;;
5022;SDS011;2530;47.990;7.866;2023-03-01T04:38:46;17.30;;;13.18;;
5022;SDS011;2530;47.990;7.866;2023-03-01T04:41:15;15.95;;;13.10;;
5022;SDS011;2530;47.990;7.866;2023-03-01T04:43:42;15.63;;;13.27;;
5022;SDS011;2530;47.990;7.866;2023-03-01T04:46:09;18.10;;;14.15;;
5022;SDS011;2530;47.990;7.866;2023-03-01T04:48:38;17.35;;;13.55;;
5022;SDS011;2530;47.990;7.866;2023-03-01T04:51:05;18.65;;;14.30;;
5022;SDS011;2530;47.990;7.866;2023-03-01T04:53:32;16.50;;;13.10;;
5022;SDS011;2530;47.990;7.866;2023-03-01T04:55:58;15.52;;;12.65;;
5022;SDS011;2530;47.990;7.866;2023-03-01T04:58:27;14.13;;;12.63;;
5022;SDS011;2530;47.990;7.866;2023-03-01T05:00:53;16.23;;;13.20;;
5022;SDS011;2530;47.990;7.866;2023-03-01T05:03:20;16.80;;;14.02;;
5022;SDS011;2530;47.990;7.866;2023-03-01T05:05:48;17.27;;;13.70;;
5022;SDS011;2530;47.990;7.866;2023-03-01T05:08:16;16.95;;;13.10;;
5022;SDS011;2530;47.990;7.866;2023-03-01T05:10:46;18.67;;;14.20;;
5022;SDS011;2530;47.990;7.866;2023-03-01T05:13:14;16.10;;;14.27;;
5022;SDS011;2530;47.990;7.866;2023-03-01T05:15:46;17.20;;;13.13;;
5022;SDS011;2530;47.990;7.866;2023-03-01T05:18:13;18.08;;;13.40;;
5022;SDS011;2530;47.990;7.866;2023-03-01T05:20:38;15.97;;;13.53;;
5022;SDS011;2530;47.990;7.866;2023-03-01T05:23:04;17.37;;;13.80;;
5022;SDS011;2530;47.990;7.866;2023-03-01T05:25:30;18.03;;;14.70;;
5022;SDS011;2530;47.990;7.866;2023-03-01T05:28:02;18.23;;;14.13;;
5022;SDS011;2530;47.990;7.866;2023-03-01T05:30:32;18.63;;;13.80;;
5022;SDS011;2530;47.990;7.866;2023-03-01T05:32:58;16.77;;;13.75;;
5022;SDS011;2530;47.990;7.866;2023-03-01T05:35:24;18.70;;;16.33;;
5022;SDS011;2530;47.990;7.866;2023-03-01T05:37:50;21.02;;;16.65;;
5022;SDS011;2530;47.990;7.866;2023-03-01T05:40:17;19.05;;;14.45;;
5022;SDS011;2530;47.990;7.866;2023-03-01T05:42:45;17.92;;;13.82;;
5022;SDS011;2530;47.990;7.866;2023-03-01T05:45:13;17.40;;;14.35;;
5022;SDS011;2530;47.990;7.866;2023-03-01T05:47:40;18.05;;;14.18;;
5022;SDS011;2530;47.990;7.866;2023-03-01T05:50:10;18.75;;;14.73;;
5022;SDS011;2530;47.990;7.866;2023-03-01T05:53:03;16.83;;;14.30;;
5022;SDS011;2530;47.990;7.866;2023-03-01T05:55:32;18.33;;;14.73;;
5022;SDS011;2530;47.990;7.866;2023-03-01T05:57:59;18.67;;;14.60;;
5022;SDS011;2530;47.990;7.866;2023-03-01T06:00:26;15.95;;;13.55;;
5022;SDS011;2530;47.990;7.866;2023-03-01T06:02:53;19.08;;;13.55;;
5022;SDS011;2530;47.990;7.866;2023-03-01T06:05:19;19.05;;;15.20;;
5022;SDS011;2530;47.990;7.866;2023-03-01T06:07:45;18.80;;;14.00;;
5022;SDS011;2530;47.990;7.866;2023-03-01T06:10:11;19.00;;;14.98;;
5022;SDS011;2530;47.990;7.866;2023-03-01T06:12:38;18.92;;;14.10;;
5022;SDS011;2530;47.990;7.866;2023-03-01T06:15:05;21.38;;;14.95;;
5022;SDS011;2530;47.990;7.866;2023-03-01T06:17:32;23.02;;;15.10;;
5022;SDS011;2530;47.990;7.866;2023-03-01T06:20:02;19.10;;;14.07;;
5022;SDS011;2530;47.990;7.866;2023-03-01T06:22:29;20.02;;;14.77;;
5022;SDS011;2530;47.990;7.866;2023-03-01T06:24:54;18.73;;;14.90;;
5022;SDS011;2530;47.990;7.866;2023-03-01T06:27:20;21.10;;;15.33;;
5022;SDS011;2530;47.990;7.866;2023-03-01T06:29:45;18.50;;;14.07;;
5022;SDS011;2530;47.990;7.866;2023-03-01T06:32:11;21.40;;;15.00;;
5022;SDS011;2530;47.990;7.866;2023-03-01T06:34:36;18.67;;;14.50;;
5022;SDS011;2530;47.990;7.866;2023-03-01T06:37:02;19.37;;;14.10;;
5022;SDS011;2530;47.990;7.866;2023-03-01T06:39:30;18.55;;;14.75;;
5022;SDS011;2530;47.990;7.866;2023-03-01T06:41:57;16.88;;;13.73;;
5022;SDS011;2530;47.990;7.866;2023-03-01T06:44:23;18.08;;;14.57;;
5022;SDS011;2530;47.990;7.866;2023-03-01T06:46:49;18.50;;;13.67;;
5022;SDS011;2530;47.990;7.866;2023-03-01T06:49:15;18.88;;;14.48;;
5022;SDS011;2530;47.990;7.866;2023-03-01T06:51:42;19.08;;;13.60;;
5022;SDS011;2530;47.990;7.866;2023-03-01T06:54:08;16.02;;;13.00;;
5022;SDS011;2530;47.990;7.866;2023-03-01T06:56:34;16.77;;;13.70;;
5022;SDS011;2530;47.990;7.866;2023-03-01T06:59:00;18.88;;;13.68;;
5022;SDS011;2530;47.990;7.866;2023-03-01T07:01:25;17.95;;;13.00;;
5022;SDS011;2530;47.990;7.866;2023-03-01T07:03:53;16.90;;;13.35;;
5022;SDS011;2530;47.990;7.866;2023-03-01T07:06:19;17.15;;;13.55;;
5022;SDS011;2530;47.990;7.866;2023-03-01T07:08:45;19.20;;;14.15;;
5022;SDS011;2530;47.990;7.866;2023-03-01T07:11:11;18.48;;;14.32;;
5022;SDS011;2530;47.990;7.866;2023-03-01T07:13:37;18.00;;;13.70;;
5022;SDS011;2530;47.990;7.866;2023-03-01T07:16:02;20.67;;;14.10;;
5022;SDS011;2530;47.990;7.866;2023-03-01T07:18:28;19.48;;;14.60;;
5022;SDS011;2530;47.990;7.866;2023-03-01T07:20:53;17.75;;;14.60;;
5022;SDS011;2530;47.990;7.866;2023-03-01T07:23:19;18.33;;;14.13;;
5022;SDS011;2530;47.990;7.866;2023-03-01T07:25:46;20.30;;;15.57;;
5022;SDS011;2530;47.990;7.866;2023-03-01T07:28:19;17.70;;;14.55;;
5022;SDS011;2530;47.990;7.866;2023-03-01T07:30:45;16.75;;;14.05;;
5022;SDS011;2530;47.990;7.866;2023-03-01T07:33:10;20.40;;;14.45;;
5022;SDS011;2530;47.990;7.866;2023-03-01T07:35:36;20.27;;;14.25;;
5022;SDS011;2530;47.990;7.866;2023-03-01T07:38:02;19.33;;;14.10;;
5022;SDS011;2530;47.990;7.866;2023-03-01T07:40:27;17.70;;;13.60;;
5022;SDS011;2530;47.990;7.866;2023-03-01T07:42:55;21.03;;;14.80;;
5022;SDS011;2530;47.990;7.866;2023-03-01T07:45:21;19.33;;;14.60;;
5022;SDS011;2530;47.990;7.866;2023-03-01T07:47:46;17.88;;;14.82;;
5022;SDS011;2530;47.990;7.866;2023-03-01T07:50:12;19.65;;;14.48;;
5022;SDS011;2530;47.990;7.866;2023-03-01T07:52:38;17.57;;;14.00;;
5022;SDS011;2530;47.990;7.866;2023-03-01T07:55:04;18.37;;;14.23;;
5022;SDS011;2530;47.990;7.866;2023-03-01T07:57:30;19.50;;;14.30;;
5022;SDS011;2530;47.990;7.866;2023-03-01T07:59:56;20.42;;;14.75;;
5022;SDS011;2530;47.990;7.866;2023-03-01T08:02:21;19.75;;;15.32;;
5022;SDS011;2530;47.990;7.866;2023-03-01T08:04:47;21.83;;;14.70;;
5022;SDS011;2530;47.990;7.866;2023-03-01T08:07:12;21.77;;;14.98;;
5022;SDS011;2530;47.990;7.866;2023-03-01T08:09:38;19.98;;;14.93;;
5022;SDS011;2530;47.990;7.866;2023-03-01T08:12:04;18.83;;;14.55;;
5022;SDS011;2530;47.990;7.866;2023-03-01T08:14:31;18.73;;;13.60;;
5022;SDS011;2530;47.990;7.866;2023-03-01T08:16:57;20.35;;;14.32;;
5022;SDS011;2530;47.990;7.866;2023-03-01T08:19:22;16.73;;;13.60;;
5022;SDS011;2530;47.990;7.866;2023-03-01T08:21:48;18.23;;;14.63;;
5022;SDS011;2530;47.990;7.866;2023-03-01T08:24:14;19.80;;;14.47;;
5022;SDS011;2530;47.990;7.866;2023-03-01T08:26:39;20.42;;;15.73;;
5022;SDS011;2530;47.990;7.866;2023-03-01T08:29:05;22.48;;;15.98;;
5022;SDS011;2530;47.990;7.866;2023-03-01T08:31:32;21.87;;;14.50;;
5022;SDS011;2530;47.990;7.866;2023-03-01T08:34:01;18.20;;;14.70;;
5022;SDS011;2530;47.990;7.866;2023-03-01T08:36:34;17.30;;;13.90;;
5022;SDS011;2530;47.990;7.866;2023-03-01T08:39:02;19.35;;;14.32;;
5022;SDS011;2530;47.990;7.866;2023-03-01T08:41:28;21.40;;;16.08;;
5022;SDS011;2530;47.990;7.866;2023-03-01T08:43:54;18.52;;;14.13;;
5022;SDS011;2530;47.990;7.866;2023-03-01T08:46:24;18.97;;;13.70;;
5022;SDS011;2530;47.990;7.866;2023-03-01T08:48:53;21.13;;;15.68;;
5022;SDS011;2530;47.990;7.866;2023-03-01T08:51:19;17.77;;;14.50;;
5022;SDS011;2530;47.990;7.866;2023-03-01T08:53:45;22.52;;;15.18;;
5022;SDS011;2530;47.990;7.866;2023-03-01T08:56:12;17.40;;;14.30;;
5022;SDS011;2530;47.990;7.866;2023-03-01T08:58:38;22.30;;;14.40;;
5022;SDS011;2530;47.990;7.866;2023-03-01T09:01:08;20.08;;;15.18;;
5022;SDS011;2530;47.990;7.866;2023-03-01T09:03:35;18.50;;;13.98;;
5022;SDS011;2530;47.990;7.866;2023-03-01T09:06:01;19.38;;;14.73;;
5022;SDS011;2530;47.990;7.866;2023-03-01T09:08:28;19.52;;;14.40;;
5022;SDS011;2530;47.990;7.866;2023-03-01T09:10:54;17.25;;;13.80;;
5022;SDS011;2530;47.990;7.866;2023-03-01T09:13:19;17.92;;;14.20;;
5022;SDS011;2530;47.990;7.866;2023-03-01T09:15:45;18.40;;;14.52;;
5022;SDS011;2530;47.990;7.866;2023-03-01T09:18:10;17.45;;;14.73;;
5022;SDS011;2530;47.990;7.866;2023-03-01T09:20:36;18.65;;;15.27;;
5022;SDS011;2530;47.990;7.866;2023-03-01T09:23:01;20.50;;;14.85;;
5022;SDS011;2530;47.990;7.866;2023-03-01T09:25:27;22.53;;;15.60;;
5022;SDS011;2530;47.990;7.866;2023-03-01T09:27:53;19.00;;;14.40;;
5022;SDS011;2530;47.990;7.866;2023-03-01T09:30:20;20.40;;;15.30;;
5022;SDS011;2530;47.990;7.866;2023-03-01T09:32:46;17.55;;;14.00;;
5022;SDS011;2530;47.990;7.866;2023-03-01T09:35:11;20.10;;;15.63;;
5022;SDS011;2530;47.990;7.866;2023-03-01T09:37:38;21.58;;;15.60;;
5022;SDS011;2530;47.990;7.866;2023-03-01T09:40:08;20.20;;;14.73;;
5022;SDS011;2530;47.990;7.866;2023-03-01T09:42:52;23.63;;;15.18;;
5022;SDS011;2530;47.990;7.866;2023-03-01T09:45:33;18.43;;;13.70;;
5022;SDS011;2530;47.990;7.866;2023-03-01T09:48:00;19.13;;;14.68;;
5022;SDS011;2530;47.990;7.866;2023-03-01T09:50:31;19.08;;;14.65;;
5022;SDS011;2530;47.990;7.866;2023-03-01T09:53:05;19.40;;;15.30;;
5022;SDS011;2530;47.990;7.866;2023-03-01T09:58:21;19.05;;;15.55;;
5022;SDS011;2530;47.990;7.866;2023-03-01T10:01:52;17.40;;;13.88;;
5022;SDS011;2530;47.990;7.866;2023-03-01T10:07:32;20.30;;;15.02;;
5022;SDS011;2530;47.990;7.866;2023-03-01T10:09:36;19.23;;;14.75;;
5022;SDS011;2530;47.990;7.866;2023-03-01T10:12:04;17.45;;;14.60;;
5022;SDS011;2530;47.990;7.866;2023-03-01T10:14:48;21.10;;;15.48;;
5022;SDS011;2530;47.990;7.866;2023-03-01T10:17:43;18.70;;;13.90;;
5022;SDS011;2530;47.990;7.866;2023-03-01T10:22:47;20.27;;;16.13;;
5022;SDS011;2530;47.990;7.866;2023-03-01T10:27:59;18.45;;;14.55;;
5022;SDS011;2530;47.990;7.866;2023-03-01T10:30:37;18.80;;;14.82;;
5022;SDS011;2530;47.990;7.866;2023-03-01T10:33:13;17.90;;;14.57;;
5022;SDS011;2530;47.990;7.866;2023-03-01T10:36:00;20.63;;;13.63;;
5022;SDS011;2530;47.990;7.866;2023-03-01T10:38:26;17.10;;;14.48;;
5022;SDS011;2530;47.990;7.866;2023-03-01T10:40:57;19.00;;;14.98;;
5022;SDS011;2530;47.990;7.866;2023-03-01T10:43:24;18.40;;;14.48;;
5022;SDS011;2530;47.990;7.866;2023-03-01T10:45:51;16.98;;;14.68;;
5022;SDS011;2530;47.990;7.866;2023-03-01T10:48:21;18.75;;;15.95;;
5022;SDS011;2530;47.990;7.866;2023-03-01T10:51:04;20.63;;;15.45;;
5022;SDS011;2530;47.990;7.866;2023-03-01T10:56:13;19.63;;;15.30;;
5022;SDS011;2530;47.990;7.866;2023-03-01T10:58:41;18.20;;;15.33;;
5022;SDS011;2530;47.990;7.866;2023-03-01T11:03:55;18.20;;;14.82;;
5022;SDS011;2530;47.990;7.866;2023-03-01T11:06:35;18.75;;;15.02;;
5022;SDS011;2530;47.990;7.866;2023-03-01T11:09:15;17.83;;;15.10;;
5022;SDS011;2530;47.990;7.866;2023-03-01T11:11:41;17.90;;;14.97;;
5022;SDS011;2530;47.990;7.866;2023-03-01T11:14:12;18.45;;;14.85;;
5022;SDS011;2530;47.990;7.866;2023-03-01T11:16:44;19.37;;;14.47;;
5022;SDS011;2530;47.990;7.866;2023-03-01T11:21:59;19.27;;;15.30;;
5022;SDS011;2530;47.990;7.866;2023-03-01T11:27:20;18.10;;;16.00;;
5022;SDS011;2530;47.990;7.866;2023-03-01T11:29:54;19.08;;;14.73;;
5022;SDS011;2530;47.990;7.866;2023-03-01T11:32:40;19.10;;;15.20;;
5022;SDS011;2530;47.990;7.866;2023-03-01T11:35:14;16.63;;;14.43;;
5022;SDS011;2530;47.990;7.866;2023-03-01T11:38:02;19.23;;;14.57;;
5022;SDS011;2530;47.990;7.866;2023-03-01T11:40:40;17.65;;;14.95;;
5022;SDS011;2530;47.990;7.866;2023-03-01T11:43:20;21.02;;;15.77;;
5022;SDS011;2530;47.990;7.866;2023-03-01T11:46:01;17.70;;;14.27;;
5022;SDS011;2530;47.990;7.866;2023-03-01T12:02:39;16.70;;;14.90;;
5022;SDS011;2530;47.990;7.866;2023-03-01T12:08:06;17.17;;;13.60;;
5022;SDS011;2530;47.990;7.866;2023-03-01T12:11:15;15.32;;;13.20;;
5022;SDS011;2530;47.990;7.866;2023-03-01T12:25:02;16.80;;;14.38;;
5022;SDS011;2530;47.990;7.866;2023-03-01T12:27:39;15.80;;;14.10;;
5022;SDS011;2530;47.990;7.866;2023-03-01T12:30:27;15.15;;;13.55;;
5022;SDS011;2530;47.990;7.866;2023-03-01T12:39:03;11.98;;;10.20;;
5022;SDS011;2530;47.990;7.866;2023-03-01T12:49:19;11.80;;;10.60;;
5022;SDS011;2530;47.990;7.866;2023-03-01T12:54:47;12.60;;;11.30;;
5022;SDS011;2530;47.990;7.866;2023-03-01T12:57:27;12.23;;;11.13;;
5022;SDS011;2530;47.990;7.866;2023-03-01T13:05:44;12.20;;;11.00;;
5022;SDS011;2530;47.990;7.866;2023-03-01T13:08:27;12.00;;;10.90;;
5022;SDS011;2530;47.990;7.866;2023-03-01T13:11:11;12.90;;;11.60;;
5022;SDS011;2530;47.990;7.866;2023-03-01T13:13:45;11.85;;;10.75;;
5022;SDS011;2530;47.990;7.866;2023-03-01T13:18:45;12.73;;;11.52;;
5022;SDS011;2530;47.990;7.866;2023-03-01T13:21:10;12.77;;;11.48;;
5022;SDS011;2530;47.990;7.866;2023-03-01T13:23:37;11.47;;;10.37;;
5022;SDS011;2530;47.990;7.866;2023-03-01T13:26:14;12.95;;;11.05;;
5022;SDS011;2530;47.990;7.866;2023-03-01T13:33:57;13.52;;;12.13;;
5022;SDS011;2530;47.990;7.866;2023-03-01T13:39:02;12.63;;;11.43;;
5022;SDS011;2530;47.990;7.866;2023-03-01T13:50:15;13.27;;;11.75;;
5022;SDS011;2530;47.990;7.866;2023-03-01T13:57:38;13.07;;;11.77;;
5022;SDS011;2530;47.990;7.866;2023-03-01T14:00:05;12.40;;;11.10;;
5022;SDS011;2530;47.990;7.866;2023-03-01T14:02:31;12.35;;;11.05;;
5022;SDS011;2530;47.990;7.866;2023-03-01T14:04:58;12.30;;;11.00;;
5022;SDS011;2530;47.990;7.866;2023-03-01T14:07:24;13.02;;;11.82;;
5022;SDS011;2530;47.990;7.866;2023-03-01T14:09:55;13.15;;;11.85;;
5022;SDS011;2530;47.990;7.866;2023-03-01T14:12:46;12.48;;;11.18;;
5022;SDS011;2530;47.990;7.866;2023-03-01T14:15:34;13.20;;;11.90;;
5022;SDS011;2530;47.990;7.866;2023-03-01T14:18:13;12.85;;;11.55;;
5022;SDS011;2530;47.990;7.866;2023-03-01T14:20:47;12.10;;;10.90;;
5022;SDS011;2530;47.990;7.866;2023-03-01T14:23:18;13.38;;;12.07;;
5022;SDS011;2530;47.990;7.866;2023-03-01T14:28:15;13.23;;;11.93;;
5022;SDS011;2530;47.990;7.866;2023-03-01T14:30:42;12.85;;;11.55;;
5022;SDS011;2530;47.990;7.866;2023-03-01T14:38:38;12.82;;;11.50;;
5022;SDS011;2530;47.990;7.866;2023-03-01T14:41:10;13.18;;;11.85;;
5022;SDS011;2530;47.990;7.866;2023-03-01T14:43:45;12.65;;;11.52;;
5022;SDS011;2530;47.990;7.866;2023-03-01T14:46:21;12.48;;;11.20;;
5022;SDS011;2530;47.990;7.866;2023-03-01T14:49:05;13.45;;;11.80;;
5022;SDS011;2530;47.990;7.866;2023-03-01T14:51:36;15.20;;;12.25;;
5022;SDS011;2530;47.990;7.866;2023-03-01T14:54:02;12.75;;;11.55;;
5022;SDS011;2530;47.990;7.866;2023-03-01T14:56:42;12.55;;;11.35;;
5022;SDS011;2530;47.990;7.866;2023-03-01T14:59:10;13.25;;;10.85;;
5022;SDS011;2530;47.990;7.866;2023-03-01T15:01:36;13.30;;;11.93;;
5022;SDS011;2530;47.990;7.866;2023-03-01T15:04:02;12.15;;;10.95;;
5022;SDS011;2530;47.990;7.866;2023-03-01T15:06:29;12.38;;;11.18;;
5022;SDS011;2530;47.990;7.866;2023-03-01T15:08:55;13.40;;;12.10;;
5022;SDS011;2530;47.990;7.866;2023-03-01T15:11:29;13.10;;;11.80;;
5022;SDS011;2530;47.990;7.866;2023-03-01T15:13:56;13.60;;;12.20;;
5022;SDS011;2530;47.990;7.866;2023-03-01T15:16:22;13.80;;;12.20;;
5022;SDS011;2530;47.990;7.866;2023-03-01T15:18:58;13.00;;;11.70;;
5022;SDS011;2530;47.990;7.866;2023-03-01T15:21:30;12.80;;;11.50;;
5022;SDS011;2530;47.990;7.866;2023-03-01T15:26:31;12.88;;;11.57;;
5022;SDS011;2530;47.990;7.866;2023-03-01T15:29:02;13.32;;;12.05;;
5022;SDS011;2530;47.990;7.866;2023-03-01T15:31:29;13.50;;;12.13;;
5022;SDS011;2530;47.990;7.866;2023-03-01T15:34:10;12.82;;;11.43;;
5022;SDS011;2530;47.990;7.866;2023-03-01T15:36:47;14.60;;;13.10;;
5022;SDS011;2530;47.990;7.866;2023-03-01T15:39:25;16.80;;;15.10;;
5022;SDS011;2530;47.990;7.866;2023-03-01T15:42:02;17.30;;;15.50;;
5022;SDS011;2530;47.990;7.866;2023-03-01T15:44:31;16.95;;;15.15;;
5022;SDS011;2530;47.990;7.866;2023-03-01T15:46:57;19.08;;;16.40;;
5022;SDS011;2530;47.990;7.866;2023-03-01T15:49:35;18.23;;;16.05;;
5022;SDS011;2530;47.990;7.866;2023-03-01T15:52:05;18.08;;;16.17;;
5022;SDS011;2530;47.990;7.866;2023-03-01T15:54:39;20.25;;;16.52;;
5022;SDS011;2530;47.990;7.866;2023-03-01T15:57:08;18.42;;;16.35;;
5022;SDS011;2530;47.990;7.866;2023-03-01T15:59:38;19.98;;;16.35;;
5022;SDS011;2530;47.990;7.866;2023-03-01T16:02:08;20.93;;;16.60;;
5022;SDS011;2530;47.990;7.866;2023-03-01T16:04:35;20.60;;;17.02;;
5022;SDS011;2530;47.990;7.866;2023-03-01T16:07:00;22.40;;;17.00;;
5022;SDS011;2530;47.990;7.866;2023-03-01T16:09:26;19.73;;;16.98;;
5022;SDS011;2530;47.990;7.866;2023-03-01T16:11:52;22.50;;;17.55;;
5022;SDS011;2530;47.990;7.866;2023-03-01T16:14:19;22.10;;;16.88;;
5022;SDS011;2530;47.990;7.866;2023-03-01T16:16:45;19.00;;;16.95;;
5022;SDS011;2530;47.990;7.866;2023-03-01T16:19:11;22.27;;;17.02;;
5022;SDS011;2530;47.990;7.866;2023-03-01T16:21:37;19.88;;;16.40;;
5022;SDS011;2530;47.990;7.866;2023-03-01T16:24:03;19.92;;;16.48;;
5022;SDS011;2530;47.990;7.866;2023-03-01T16:26:29;25.55;;;17.35;;
5022;SDS011;2530;47.990;7.866;2023-03-01T16:28:55;20.92;;;16.58;;
5022;SDS011;2530;47.990;7.866;2023-03-01T16:31:21;21.48;;;17.42;;
5022;SDS011;2530;47.990;7.866;2023-03-01T16:33:48;21.92;;;17.40;;
5022;SDS011;2530;47.990;7.866;2023-03-01T16:36:18;23.77;;;17.10;;
5022;SDS011;2530;47.990;7.866;2023-03-01T16:38:45;20.70;;;16.65;;
5022;SDS011;2530;47.990;7.866;2023-03-01T16:41:11;23.67;;;16.95;;
5022;SDS011;2530;47.990;7.866;2023-03-01T16:43:38;21.10;;;17.70;;
5022;SDS011;2530;47.990;7.866;2023-03-01T16:46:11;24.15;;;18.23;;
5022;SDS011;2530;47.990;7.866;2023-03-01T16:48:41;21.55;;;17.50;;
5022;SDS011;2530;47.990;7.866;2023-03-01T16:51:07;21.60;;;16.83;;
5022;SDS011;2530;47.990;7.866;2023-03-01T16:53:33;21.88;;;17.90;;
5022;SDS011;2530;47.990;7.866;2023-03-01T16:56:01;22.42;;;17.33;;